Date,TemperatureHighF,TemperatureAvgF,TemperatureLowF,DewpointHighF,DewpointAvgF,DewpointLowF,HumidityHigh,HumidityAvg,HumidityLow,PressureMaxIn,PressureMinIn,WindSpeedMaxMPH,WindSpeedAvgMPH,GustSpeedMaxMPH,PrecipitationSumIn
2012-1-1,54.0,31.9,17.0,20.0,15.9,12.0,80,57,22,0.00,40.00,6,2,13,0.00
2012-1-2,52.0,33.0,20.0,21.0,16.0,14.0,81,55,23,0.00,40.00,7,2,12,0.00
2012-1-3,60.0,32.6,17.0,30.0,14.4,9.0,90,58,14,0.00,40.00,4,1,15,0.00
2012-1-4,53.0,37.2,21.0,18.0,12.9,8.0,77,42,18,0.00,40.00,15,5,23,0.00
2012-1-5,57.0,32.6,15.0,26.0,13.6,5.0,83,55,12,0.00,40.00,6,1,12,0.00
2012-1-6,60.0,37.1,22.0,25.0,17.5,14.0,80,52,17,0.00,40.00,6,1,24,0.00
2012-1-7,47.0,34.6,23.0,22.0,17.4,10.0,87,53,29,0.00,40.00,15,5,24,0.00
2012-1-8,38.0,31.9,27.0,22.0,8.6,-1.0,78,40,25,0.00,40.00,13,9,30,0.00
2012-1-9,47.0,33.8,23.0,17.0,10.2,1.0,73,39,20,0.00,40.00,17,6,25,0.00
2012-1-10,57.0,34.7,18.0,25.0,18.8,14.0,87,58,24,0.00,40.00,8,2,15,0.00
2012-1-11,52.0,35.5,25.0,22.0,11.0,-2.0,75,41,17,0.00,40.00,10,4,19,0.00
2012-1-12,38.0,29.6,23.0,1.0,-5.5,-10.0,31,22,12,0.00,40.00,14,8,24,0.00
2012-1-13,46.0,31.5,17.0,6.0,-5.9,-16.0,57,22,10,0.00,40.00,11,5,20,0.00
2012-1-14,53.0,29.9,13.0,15.0,5.5,-5.0,66,43,12,0.00,40.00,8,2,14,0.00
2012-1-15,42.0,33.6,24.0,28.0,13.1,4.0,91,45,23,0.00,40.00,15,6,24,0.00
2012-1-16,37.0,31.8,29.0,31.0,29.0,26.0,98,89,70,0.00,40.00,13,9,26,0.20
2012-1-17,42.0,31.2,24.0,28.0,24.4,22.0,96,78,48,0.00,40.00,7,4,17,0.01
2012-1-18,48.0,32.5,18.0,27.0,18.7,13.0,96,64,24,0.00,40.00,9,3,14,0.01
2012-1-19,56.0,38.3,25.0,26.0,19.7,15.0,75,51,23,0.00,40.00,9,3,15,0.00
2012-1-20,55.0,35.3,23.0,22.0,15.3,8.0,80,50,16,0.00,40.00,7,2,14,0.00
2012-1-21,39.0,31.9,23.0,31.0,20.9,12.0,97,66,42,0.00,40.00,19,9,36,0.02
2012-1-22,40.0,29.5,20.0,22.0,12.9,-2.0,85,54,25,0.00,40.00,8,4,18,0.11
2012-1-23,38.0,27.3,16.0,27.0,15.4,7.0,94,63,29,0.00,40.00,12,4,21,0.11
2012-1-24,40.0,29.7,14.0,26.0,18.4,6.0,95,66,32,0.00,40.00,16,8,30,0.03
2012-1-25,51.0,38.6,28.0,21.0,13.3,2.0,65,37,22,0.00,40.00,21,12,31,0.02
2012-1-26,55.0,40.1,23.0,24.0,20.1,14.0,83,48,27,0.00,40.00,12,3,23,0.00
2012-1-27,44.0,36.1,28.0,32.0,18.0,2.0,82,51,23,0.00,40.00,16,7,23,0.00
2012-1-28,43.0,33.1,27.0,4.0,-1.4,-10.0,31,23,13,0.00,40.00,16,11,27,0.00
2012-1-29,53.0,33.6,16.0,15.0,3.3,-7.0,64,33,11,0.00,40.00,10,3,16,0.00
2012-1-30,49.0,31.5,14.0,21.0,13.2,6.0,78,51,25,0.00,40.00,12,4,19,0.00
2012-1-31,49.0,33.9,23.0,27.0,16.5,10.0,81,54,22,0.00,40.00,9,2,20,0.00
2012-2-1,47.0,30.8,17.0,27.0,16.8,14.0,89,61,30,0.00,40.00,8,2,14,0.00
2012-2-2,36.0,26.7,20.0,29.0,20.8,12.0,95,79,43,0.00,40.00,7,1,16,0.01
2012-2-3,35.0,23.3,9.0,26.0,16.4,5.0,92,76,51,0.00,40.00,9,3,15,0.07
2012-2-4,39.0,29.6,22.0,24.0,20.4,17.0,92,70,44,0.00,40.00,13,7,21,0.07
2012-2-5,44.0,29.9,15.0,25.0,18.3,10.0,90,66,28,0.00,40.00,10,4,17,0.00
2012-2-6,46.0,29.4,13.0,26.0,15.5,4.0,90,62,22,0.00,40.00,9,3,17,0.00
2012-2-7,38.0,30.0,25.0,19.0,13.8,10.0,66,51,35,0.00,40.00,11,6,18,0.00
2012-2-8,51.0,36.2,27.0,24.0,20.0,16.0,81,54,33,0.00,40.00,7,2,11,0.00
2012-2-9,56.0,35.2,19.0,30.0,19.3,12.0,91,60,18,0.00,40.00,6,2,14,0.00
2012-2-10,58.0,37.4,21.0,26.0,18.7,12.0,86,54,16,0.00,40.00,7,2,19,0.00
2012-2-11,52.0,36.7,21.0,26.0,18.2,12.0,87,54,21,0.00,40.00,12,5,27,0.00
2012-2-12,40.0,34.9,31.0,31.0,25.0,17.0,97,70,42,0.00,40.00,13,7,21,0.00
2012-2-13,35.0,31.2,30.0,30.0,28.7,28.0,95,90,79,0.00,40.00,12,8,22,0.11
2012-2-14,36.0,29.2,24.0,29.0,21.4,12.0,94,75,38,0.00,40.00,13,7,29,0.24
2012-2-15,31.0,25.1,19.0,25.0,21.9,17.0,93,87,71,0.00,40.00,8,4,14,0.15
2012-2-16,42.0,28.8,7.0,24.0,16.5,3.0,93,63,40,0.00,40.00,14,7,25,0.02
2012-2-17,49.0,35.7,20.0,18.0,14.4,4.0,70,44,22,0.00,40.00,10,4,20,0.02
2012-2-18,47.0,30.4,12.0,23.0,14.4,8.0,83,57,26,0.00,40.00,11,4,18,0.00
2012-2-19,35.0,30.0,26.0,31.0,24.2,19.0,92,79,70,0.00,40.00,11,6,24,0.03
2012-2-20,45.0,28.7,13.0,19.0,11.0,3.0,85,54,19,0.00,40.00,8,3,16,0.01
2012-2-21,53.0,33.4,13.0,24.0,10.7,5.0,83,47,15,0.00,40.00,9,3,17,0.01
2012-2-22,56.0,37.7,21.0,27.0,21.1,14.0,82,55,25,0.00,40.00,8,2,16,0.00
2012-2-23,56.0,42.3,30.0,25.0,14.1,-2.0,77,37,12,0.00,40.00,12,5,23,0.00
2012-2-24,49.0,34.2,22.0,10.0,2.6,-2.0,52,28,13,0.00,40.00,14,8,25,0.00
2012-2-25,54.0,37.6,19.0,17.0,12.0,7.0,70,39,18,0.00,40.00,15,6,28,0.00
2012-2-26,52.0,34.5,20.0,18.0,9.4,-2.0,74,42,13,0.00,40.00,9,2,20,0.00
2012-2-27,48.0,35.8,19.0,27.0,21.2,7.0,81,56,31,0.00,40.00,20,10,41,0.00
2012-2-28,32.0,25.1,16.0,26.0,19.8,14.0,95,80,58,0.00,40.00,18,10,32,0.02
2012-2-29,45.0,27.2,6.0,25.0,11.4,2.0,89,58,18,0.00,40.00,14,5,25,0.01
2012-3-1,45.0,31.2,17.0,22.0,16.1,12.0,86,57,27,0.00,40.00,15,7,27,0.01
2012-3-2,36.0,28.5,19.0,18.0,-2.8,-16.0,60,29,12,0.00,40.00,15,8,26,0.00
2012-3-3,48.0,32.1,19.0,13.0,3.0,-9.0,66,30,20,0.00,40.00,10,4,19,0.00
2012-3-4,55.0,34.0,15.0,20.0,13.4,10.0,86,50,18,0.00,40.00,11,4,20,0.00
2012-3-5,60.0,39.5,18.0,29.0,13.3,5.0,79,43,11,0.00,40.00,9,2,16,0.00
2012-3-6,53.0,40.4,23.0,21.0,12.8,4.0,75,38,14,0.00,40.00,23,11,39,0.00
2012-3-7,42.0,27.7,22.0,20.0,11.5,5.0,73,51,26,0.00,40.00,19,8,35,0.00
2012-3-8,49.0,36.6,22.0,20.0,15.9,11.0,73,45,23,0.00,40.00,14,9,26,0.00
2012-3-9,45.0,34.6,27.0,21.0,17.4,12.0,72,52,26,0.00,40.00,15,8,26,0.00
2012-3-10,52.0,37.1,25.0,24.0,17.7,-99.9,78,51,19,0.00,40.00,13,6,23,0.00
2012-3-11,52.0,37.8,22.0,22.0,17.0,12.0,80,47,24,0.00,40.00,14,6,29,0.00
2012-3-12,56.0,38.3,20.0,20.0,8.7,-3.0,76,36,11,0.00,40.00,12,4,21,0.00
2012-3-13,57.0,39.7,19.0,17.0,-0.4,-10.0,59,25,6,0.00,40.00,13,5,23,0.00
2012-3-14,58.0,40.1,19.0,12.0,2.0,-4.0,54,25,9,0.00,40.00,11,4,21,0.00
2012-3-15,62.0,41.6,21.0,20.0,10.9,6.0,64,34,13,0.00,40.00,9,3,17,0.00
2012-3-16,60.0,43.0,24.0,29.0,13.5,11.0,73,36,14,0.00,40.00,13,5,22,0.00
2012-3-17,51.0,41.6,27.0,34.0,21.8,15.0,94,48,24,0.00,40.00,21,10,36,0.23
2012-3-18,36.0,26.3,20.0,33.0,24.3,18.0,98,92,82,0.00,40.00,20,9,40,0.42
2012-3-19,30.0,21.3,13.0,28.0,18.6,10.0,92,89,76,0.00,40.00,10,6,19,0.42
2012-3-20,45.0,28.5,17.0,23.0,16.0,-99.9,91,65,32,0.00,40.00,15,4,24,0.02
2012-3-21,60.0,31.2,11.0,27.0,18.2,8.0,91,66,27,0.00,40.00,11,3,18,0.00
2012-3-22,68.0,47.6,23.0,24.0,-22.3,-99.9,92,32,22,0.00,40.00,8,-15,14,0.00
2012-3-23,58.0,40.7,23.0,35.0,23.9,20.0,92,58,27,0.00,40.00,11,4,20,0.00
2012-3-24,60.0,41.6,25.0,33.0,23.1,20.0,89,56,21,0.00,40.00,10,3,18,0.00
2012-3-25,57.0,41.5,26.0,35.0,23.1,20.0,86,54,27,0.00,40.00,15,7,27,0.00
2012-3-26,53.0,42.3,29.0,32.0,27.3,21.0,90,59,28,0.00,40.00,16,10,28,0.00
2012-3-27,59.0,40.9,23.0,32.0,19.9,5.0,94,55,13,0.00,40.00,10,3,21,0.00
2012-3-28,61.0,43.3,24.0,28.0,17.6,11.0,80,43,15,0.00,40.00,11,4,20,0.00
2012-3-29,61.0,44.3,26.0,29.0,20.8,17.0,79,45,19,0.00,40.00,13,3,19,0.00
2012-3-30,67.0,48.4,27.0,36.0,22.9,18.0,78,44,16,0.00,40.00,10,3,21,0.00
2012-3-31,64.0,49.9,29.0,34.0,25.2,20.0,83,43,20,0.00,40.00,15,7,26,0.00
2012-4-1,50.0,42.7,31.0,27.0,20.1,5.0,65,42,20,0.00,40.00,17,11,34,0.00
2012-4-2,49.0,33.9,26.0,20.0,11.7,3.0,72,45,17,0.00,40.00,8,5,19,0.00
2012-4-3,60.0,40.5,20.0,25.0,17.2,10.0,77,43,17,0.00,40.00,8,3,17,0.00
2012-4-4,63.0,44.0,24.0,24.0,17.9,15.0,75,41,17,0.00,40.00,11,4,23,0.00
2012-4-5,59.0,44.8,28.0,23.0,15.7,9.0,66,34,16,0.00,40.00,16,6,30,0.00
2012-4-6,57.0,44.6,26.0,10.0,-1.8,-18.0,31,17,4,0.00,40.00,16,6,29,0.00
2012-4-7,60.0,39.7,18.0,8.0,0.8,-6.0,53,24,7,0.00,40.00,11,4,21,0.00
2012-4-8,67.0,46.5,23.0,18.0,10.5,3.0,49,28,9,0.00,40.00,10,2,22,0.00
2012-4-9,68.0,47.5,26.0,27.0,11.8,5.0,63,31,9,0.00,40.00,9,3,20,0.00
2012-4-10,67.0,49.4,27.0,23.0,13.6,9.0,58,29,11,0.00,40.00,13,4,23,0.00
2012-4-11,52.0,40.3,26.0,38.0,26.8,15.0,80,59,35,0.00,40.00,23,10,42,0.05
2012-4-12,51.0,41.8,35.0,29.0,17.0,-1.0,80,43,12,0.00,40.00,16,10,27,0.01
2012-4-13,48.0,40.4,31.0,23.0,12.9,3.0,64,35,19,0.00,40.00,15,8,32,0.00
2012-4-14,40.0,27.5,24.0,28.0,22.5,-99.9,96,87,26,0.00,40.00,16,10,30,0.39
2012-4-15,51.0,36.7,26.0,35.0,27.7,21.0,97,74,36,0.00,40.00,10,5,22,0.17
2012-4-16,60.0,42.6,24.0,30.0,23.4,18.0,94,54,20,0.00,40.00,7,2,20,0.01
2012-4-17,65.0,45.7,25.0,27.0,23.2,19.0,79,48,18,0.00,40.00,10,3,19,0.00
2012-4-18,66.0,49.0,28.0,37.0,22.7,15.0,86,44,15,0.00,40.00,12,4,25,0.00
2012-4-19,70.0,53.1,30.0,30.0,24.3,20.0,73,37,17,0.00,40.00,10,3,23,0.00
2012-4-20,73.0,56.2,39.0,30.0,24.0,19.0,62,32,13,0.00,40.00,14,5,22,0.00
2012-4-21,76.0,54.6,31.0,35.0,18.0,-25.0,84,39,14,0.00,40.00,7,2,15,0.00
2012-4-22,78.0,57.9,34.0,38.0,24.0,-5.0,78,37,4,0.00,40.00,9,2,16,0.00
2012-4-23,78.0,59.5,35.0,37.0,24.8,18.0,75,34,11,0.00,40.00,12,4,24,0.00
2012-4-24,72.0,53.7,34.0,36.0,19.2,1.0,80,35,6,0.00,40.00,12,4,22,0.00
2012-4-25,70.0,52.3,34.0,37.0,25.9,15.0,66,40,20,0.00,40.00,8,2,20,0.00
2012-4-26,55.0,41.9,33.0,40.0,27.0,-99.9,92,68,29,0.00,40.00,15,6,29,0.63
2012-4-27,65.0,49.2,29.0,40.0,32.4,26.0,97,59,23,0.00,40.00,9,4,18,0.03
2012-4-28,67.0,50.4,37.0,34.0,25.3,-99.9,81,45,19,0.00,40.00,9,2,20,0.00
2012-4-29,67.0,50.0,28.0,32.0,22.0,13.0,86,41,13,0.00,40.00,10,3,20,0.00
2012-4-30,69.0,52.4,31.0,33.0,22.3,14.0,75,39,12,0.00,40.00,10,4,23,0.00
2012-5-1,63.0,53.5,40.0,34.0,27.7,21.0,66,39,22,0.00,40.00,12,7,24,0.00
2012-5-2,62.0,52.6,39.0,34.0,27.5,23.0,66,40,22,0.00,40.00,11,6,21,0.00
2012-5-3,67.0,53.6,34.0,38.0,27.5,21.0,84,41,20,0.00,40.00,11,6,28,0.00
2012-5-4,69.0,55.3,34.0,32.0,24.9,18.0,67,35,18,0.00,40.00,15,6,25,0.00
2012-5-5,68.0,52.5,35.0,30.0,18.5,-99.9,53,30,15,0.00,40.00,11,4,23,0.00
2012-5-6,62.0,47.1,27.0,27.0,15.6,11.0,67,34,13,0.00,40.00,10,3,21,0.00
2012-5-7,63.0,47.6,26.0,21.0,9.1,-5.0,61,27,7,0.00,40.00,12,5,25,0.00
2012-5-8,65.0,47.0,27.0,31.0,18.2,-2.0,66,35,10,0.00,40.00,13,4,32,0.00
2012-5-9,68.0,55.0,40.0,34.0,27.0,18.0,66,38,17,0.00,40.00,10,4,19,0.00
2012-5-10,74.0,58.7,36.0,40.0,23.2,16.0,74,33,11,0.00,40.00,10,4,19,0.00
2012-5-11,72.0,56.8,36.0,36.0,18.6,7.0,56,27,10,0.00,40.00,11,4,24,0.00
2012-5-12,75.0,53.0,33.0,29.0,15.6,-99.9,56,28,9,0.00,40.00,11,3,37,0.00
2012-5-13,76.0,58.0,32.0,33.0,11.9,-7.0,58,24,5,0.00,40.00,10,4,23,0.00
2012-5-14,74.0,59.6,32.0,21.0,13.0,3.0,51,19,8,0.00,40.00,14,6,24,0.00
2012-5-15,76.0,58.3,31.0,32.0,22.3,18.0,59,30,13,0.00,40.00,11,4,23,0.00
2012-5-16,76.0,60.2,36.0,33.0,20.1,8.0,63,27,9,0.00,40.00,14,6,28,0.00
2012-5-17,77.0,61.4,35.0,31.0,16.0,8.0,42,20,10,0.00,40.00,13,6,27,0.00
2012-5-18,69.0,60.2,39.0,31.0,20.7,10.0,32,23,12,0.00,40.00,17,10,32,0.00
2012-5-19,74.0,52.9,28.0,29.0,17.4,-99.9,59,29,13,0.00,40.00,10,2,17,0.00
2012-5-20,80.0,58.5,31.0,32.0,19.7,13.0,57,27,10,0.00,40.00,9,3,19,0.00
2012-5-21,81.0,61.2,35.0,33.0,17.5,7.0,56,25,6,0.00,40.00,11,3,20,0.00
2012-5-22,82.0,65.2,40.0,33.0,17.8,10.0,46,19,7,0.00,40.00,15,6,31,0.00
2012-5-23,76.0,63.0,40.0,28.0,21.6,8.0,34,21,13,0.00,40.00,19,9,39,0.00
2012-5-24,73.0,61.5,43.0,39.0,33.7,25.0,63,37,23,0.00,40.00,14,8,26,0.00
2012-5-25,66.0,57.4,49.0,39.0,34.3,27.0,61,43,27,0.00,40.00,20,14,39,0.00
2012-5-26,56.0,47.7,34.0,35.0,19.3,0.0,72,38,10,0.00,40.00,20,12,37,0.00
2012-5-27,64.0,46.5,26.0,22.0,13.1,9.0,58,31,12,0.00,40.00,8,3,18,0.00
2012-5-28,72.0,52.7,25.0,22.0,12.4,5.0,54,25,7,0.00,40.00,11,4,21,0.00
2012-5-29,76.0,56.1,30.0,28.0,13.3,8.0,46,23,9,0.00,40.00,12,4,26,0.00
2012-5-30,79.0,60.4,34.0,28.0,13.6,5.0,41,19,7,0.00,40.00,11,3,20,0.00
2012-5-31,84.0,63.9,38.0,36.0,18.4,11.0,37,21,8,0.00,40.00,10,3,18,0.00
2012-6-1,86.0,67.7,40.0,38.0,21.8,15.0,51,23,7,0.00,40.00,13,4,39,0.00
2012-6-2,80.0,66.8,45.0,26.0,15.4,-99.9,34,16,8,0.00,40.00,14,6,27,0.00
2012-6-3,80.0,62.2,37.0,31.0,17.1,10.0,42,21,7,0.00,40.00,10,4,17,0.00
2012-6-4,78.0,61.1,35.0,32.0,22.3,18.0,52,26,11,0.00,40.00,13,5,22,0.00
2012-6-5,72.0,58.9,39.0,38.0,28.6,18.0,62,34,18,0.00,40.00,17,8,31,0.00
2012-6-6,76.0,59.3,32.0,33.0,18.3,15.0,54,25,10,0.00,40.00,14,5,26,0.00
2012-6-7,78.0,61.0,33.0,33.0,20.3,13.0,53,25,10,0.00,40.00,11,4,25,0.00
2012-6-8,78.0,62.8,38.0,35.0,19.9,12.0,45,22,8,0.00,40.00,15,7,29,0.00
2012-6-9,77.0,65.5,47.0,28.0,22.8,15.0,31,20,14,0.00,40.00,17,9,29,0.00
2012-6-10,77.0,64.6,47.0,35.0,30.2,25.0,46,29,20,0.00,40.00,10,5,22,0.00
2012-6-11,80.0,62.2,36.0,36.0,26.0,23.0,62,30,14,0.00,40.00,10,4,22,0.00
2012-6-12,82.0,65.2,41.0,32.0,17.9,0.0,43,21,4,0.00,40.00,9,3,19,0.00
2012-6-13,81.0,65.0,43.0,37.0,18.4,12.0,41,20,8,0.00,40.00,12,4,22,0.00
2012-6-14,79.0,63.9,43.0,26.0,17.7,11.0,42,20,8,0.00,40.00,10,4,22,0.00
2012-6-15,77.0,62.1,42.0,37.0,18.3,5.0,37,22,6,0.00,40.00,10,4,21,0.00
2012-6-16,82.0,55.8,38.0,33.0,19.4,-99.9,45,28,7,0.00,40.00,7,2,17,0.00
2012-6-17,85.0,68.9,44.0,43.0,27.2,21.0,56,25,11,0.00,40.00,9,4,19,0.00
2012-6-18,84.0,71.2,54.0,33.0,22.5,15.0,38,18,8,0.00,40.00,13,6,30,0.00
2012-6-19,85.0,71.5,48.0,24.0,18.0,14.0,31,15,7,0.00,40.00,11,6,22,0.00
2012-6-20,89.0,75.1,52.0,28.0,18.7,15.0,27,14,7,0.00,40.00,8,3,17,0.00
2012-6-21,87.0,69.0,44.0,34.0,18.2,13.0,37,17,7,0.00,40.00,10,4,24,0.00
2012-6-22,84.0,70.0,45.0,42.0,27.9,16.0,46,23,13,0.00,40.00,16,7,29,0.00
2012-6-23,84.0,67.2,42.0,35.0,25.4,21.0,43,24,10,0.00,40.00,12,5,24,0.00
2012-6-24,85.0,69.8,45.0,40.0,31.7,24.0,43,26,15,0.00,40.00,8,4,20,0.00
2012-6-25,83.0,70.4,54.0,52.0,43.1,35.0,63,39,24,0.00,40.00,10,4,22,0.00
2012-6-26,83.0,70.2,51.0,46.0,40.7,33.0,53,36,22,0.00,40.00,11,4,24,0.00
2012-6-27,84.0,68.8,48.0,52.0,43.6,40.0,76,43,24,0.00,40.00,12,3,22,0.00
2012-6-28,85.0,69.8,48.0,56.0,44.4,39.0,88,45,21,0.00,40.00,11,4,21,0.00
2012-6-29,87.0,73.7,51.0,49.0,39.5,33.0,63,32,17,0.00,40.00,11,4,22,0.00
2012-6-30,87.0,75.7,50.0,43.0,29.5,21.0,50,21,12,0.00,40.00,9,4,20,0.00
2012-7-1,87.0,72.2,55.0,35.0,27.2,21.0,36,20,13,0.00,40.00,12,4,27,0.00
2012-7-2,85.0,70.6,52.0,49.0,35.3,25.0,80,31,18,0.00,40.00,7,2,20,0.01
2012-7-3,82.0,69.4,53.0,53.0,41.1,34.0,51,37,24,0.00,40.00,11,2,19,0.01
2012-7-4,72.0,65.0,57.0,54.0,47.1,41.0,83,53,39,0.00,40.00,9,2,16,0.00
2012-7-5,79.0,66.8,55.0,55.0,46.4,37.0,91,54,23,0.00,40.00,9,4,22,0.00
2012-7-6,81.0,69.4,56.0,46.0,37.6,32.0,55,34,19,0.00,40.00,4,1,14,0.00
2012-7-7,86.0,69.9,49.0,43.0,36.9,32.0,54,33,18,0.00,40.00,9,2,15,0.00
2012-7-8,80.0,65.6,50.0,47.0,43.0,39.0,68,47,25,0.00,40.00,6,2,17,0.00
2012-7-9,85.0,68.2,48.0,54.0,44.8,37.0,86,49,18,0.00,40.00,8,2,24,0.04
2012-7-10,89.0,71.9,51.0,52.0,42.8,35.0,79,41,16,0.00,40.00,13,3,28,0.04
2012-7-11,83.0,68.0,49.0,54.0,44.2,38.0,72,45,25,0.00,40.00,12,2,24,0.00
2012-7-12,81.0,65.7,54.0,58.0,49.5,40.0,79,57,39,0.00,40.00,10,2,21,0.01
2012-7-13,78.0,64.5,51.0,59.0,52.4,45.0,91,67,31,0.00,40.00,9,4,20,0.01
2012-7-14,68.0,60.0,52.0,59.0,55.8,52.0,100,87,64,0.00,40.00,8,1,24,0.96
2012-7-15,74.0,61.7,49.0,60.0,54.1,48.0,100,79,50,0.00,40.00,9,3,26,0.94
2012-7-16,75.0,63.4,49.0,59.0,50.6,39.0,100,68,37,0.00,40.00,11,4,22,0.37
2012-7-17,77.0,63.4,49.0,54.0,43.5,34.0,93,54,25,0.00,40.00,10,3,17,0.01
2012-7-18,82.0,65.8,46.0,48.0,38.3,32.0,80,43,19,0.00,40.00,9,3,20,0.00
2012-7-19,81.0,68.5,56.0,50.0,42.9,36.0,69,43,22,0.00,40.00,7,1,12,0.00
2012-7-20,83.0,68.5,56.0,58.0,48.4,39.0,83,53,25,0.00,40.00,10,3,27,0.00
2012-7-21,80.0,68.4,58.0,56.0,51.0,46.0,87,57,32,0.00,40.00,9,3,25,0.03
2012-7-22,82.0,66.8,50.0,58.0,51.0,41.0,100,63,25,0.00,40.00,10,3,21,0.03
2012-7-23,76.0,65.7,59.0,58.0,53.7,48.0,86,67,40,0.00,40.00,6,1,14,0.08
2012-7-24,72.0,60.6,56.0,60.0,56.5,51.0,99,87,57,0.00,40.00,8,2,16,0.12
2012-7-25,78.0,66.6,54.0,60.0,52.9,48.0,100,67,39,0.00,40.00,10,3,19,0.01
2012-7-26,83.0,68.7,53.0,60.0,47.6,43.0,80,51,29,0.00,40.00,8,2,17,0.01
2012-7-27,79.0,67.1,54.0,60.0,52.6,48.0,98,63,41,0.00,40.00,7,1,24,0.27
2012-7-28,79.0,64.5,55.0,59.0,54.5,51.0,99,74,38,0.00,40.00,6,1,14,0.25
2012-7-29,75.0,63.0,57.0,61.0,58.2,54.0,100,86,48,0.00,40.00,8,3,25,0.93
2012-7-30,74.0,63.7,56.0,63.0,58.5,55.0,100,84,63,0.00,40.00,8,3,16,0.47
2012-7-31,78.0,61.7,52.0,59.0,54.3,47.0,100,80,46,0.00,40.00,10,2,22,0.26
2012-8-1,74.0,61.5,53.0,60.0,53.4,45.0,100,79,36,0.00,40.00,6,2,13,0.27
2012-8-2,80.0,71.0,56.0,57.0,50.7,46.0,91,52,34,0.00,40.00,7,4,20,0.00
2012-8-3,79.0,64.7,51.0,59.0,52.4,48.0,94,69,34,0.00,40.00,7,1,18,0.03
2012-8-4,80.0,67.1,53.0,56.0,49.4,43.0,84,57,30,0.00,40.00,8,2,16,0.03
2012-8-5,80.0,60.3,50.0,59.0,54.3,48.0,98,83,38,0.00,40.00,7,1,19,0.15
2012-8-6,81.0,65.9,53.0,59.0,52.6,45.0,99,67,32,0.00,40.00,12,3,24,0.01
2012-8-7,83.0,64.7,50.0,61.0,52.1,47.0,94,68,28,0.00,40.00,6,1,13,0.01
2012-8-8,86.0,67.8,49.0,59.0,50.4,41.0,97,61,26,0.00,40.00,9,2,25,0.00
2012-8-9,85.0,68.6,53.0,57.0,50.3,46.0,88,57,30,0.00,40.00,10,2,19,0.00
2012-8-10,88.0,72.1,52.0,53.0,44.3,34.0,80,42,18,0.00,40.00,8,2,16,0.00
2012-8-11,86.0,68.4,53.0,56.0,45.9,-99.9,77,51,22,0.00,40.00,8,2,24,0.05
2012-8-12,82.0,66.2,50.0,55.0,47.5,41.0,90,56,28,0.00,40.00,12,2,24,0.01
2012-8-13,85.0,67.5,50.0,57.0,45.7,42.0,84,51,22,0.00,40.00,9,2,20,0.00
2012-8-14,84.0,69.1,51.0,55.0,44.9,38.0,85,47,21,0.00,40.00,10,2,20,0.00
2012-8-15,83.0,67.8,53.0,54.0,44.6,36.0,74,48,19,0.00,40.00,8,2,17,0.00
2012-8-16,80.0,65.1,56.0,57.0,50.4,44.0,93,61,35,0.00,40.00,9,4,19,0.12
2012-8-17,76.0,65.1,55.0,60.0,55.8,53.0,95,74,50,0.00,40.00,9,2,17,0.08
2012-8-18,81.0,64.4,56.0,61.0,56.0,44.0,99,78,33,0.00,40.00,8,2,18,0.02
2012-8-19,82.0,66.7,50.0,59.0,54.1,50.0,100,68,34,0.00,40.00,6,1,17,0.01
2012-8-20,79.0,65.9,56.0,67.0,56.2,52.0,93,73,39,0.00,40.00,10,2,18,0.13
2012-8-21,71.0,61.9,57.0,64.0,56.4,53.0,96,83,67,0.00,40.00,7,1,16,0.36
2012-8-22,74.0,61.6,52.0,64.0,56.3,52.0,100,84,51,0.00,40.00,8,2,16,0.46
2012-8-23,72.0,60.1,53.0,60.0,54.6,47.0,100,84,48,0.00,40.00,10,4,24,1.04
2012-8-24,71.0,58.8,49.0,60.0,55.5,49.0,100,90,61,0.00,40.00,9,2,19,0.46
2012-8-25,79.0,60.4,48.0,61.0,52.7,47.0,100,81,32,0.00,40.00,7,1,17,0.06
2012-8-26,77.0,62.0,48.0,60.0,52.4,48.0,100,75,43,0.00,40.00,10,1,20,0.01
2012-8-27,78.0,65.5,51.0,61.0,52.4,47.0,98,67,33,0.00,40.00,10,2,18,0.01
2012-8-28,81.0,64.8,48.0,66.0,52.0,47.0,97,69,34,0.00,40.00,5,2,15,0.03
2012-8-29,81.0,66.0,50.0,55.0,49.5,42.0,96,62,28,0.00,40.00,7,2,15,0.03
2012-8-30,80.0,68.1,52.0,54.0,46.9,43.0,81,50,30,0.00,40.00,10,3,33,0.01
2012-8-31,78.0,65.5,55.0,58.0,51.3,48.0,86,63,37,0.00,40.00,10,3,21,0.01
2012-9-1,72.0,61.0,51.0,62.0,55.7,51.0,100,84,58,0.00,40.00,6,1,16,0.01
2012-9-2,74.0,62.2,53.0,58.0,54.0,49.0,98,77,51,0.00,40.00,10,3,17,0.02
2012-9-3,78.0,61.4,48.0,60.0,52.1,46.0,99,76,32,0.00,40.00,10,2,20,0.07
2012-9-4,78.0,62.1,51.0,58.0,52.2,49.0,99,73,38,0.00,40.00,10,2,19,0.01
2012-9-5,79.0,63.6,46.0,54.0,49.1,45.0,99,64,34,0.00,40.00,6,1,14,0.01
2012-9-6,81.0,66.0,50.0,55.0,50.8,47.0,95,62,33,0.00,40.00,8,2,15,0.00
2012-9-7,72.0,63.3,55.0,61.0,55.6,52.0,92,77,62,0.00,40.00,6,1,14,0.01
2012-9-8,76.0,63.9,49.0,55.0,45.6,39.0,92,55,28,0.00,40.00,9,3,18,0.01
2012-9-9,75.0,59.7,41.0,53.0,45.4,38.0,88,63,32,0.00,40.00,7,2,20,0.00
2012-9-10,71.0,62.2,52.0,56.0,52.6,48.0,96,73,45,0.00,40.00,11,4,22,0.00
2012-9-11,59.0,55.1,50.0,55.0,53.3,49.0,99,94,79,0.00,40.00,8,3,19,0.19
2012-9-12,72.0,57.2,48.0,54.0,50.8,47.0,100,82,47,0.00,40.00,8,2,18,0.03
2012-9-13,71.0,61.1,53.0,51.0,43.3,39.0,88,53,34,0.00,40.00,14,8,24,0.00
2012-9-14,68.0,55.9,43.0,43.0,36.4,33.0,76,51,28,0.00,40.00,12,6,22,0.00
2012-9-15,76.0,55.2,34.0,44.0,31.7,25.0,87,50,16,0.00,40.00,8,2,17,0.00
2012-9-16,76.0,57.2,37.0,47.0,31.5,28.0,82,45,19,0.00,40.00,12,2,20,0.00
2012-9-17,74.0,56.1,36.0,44.0,31.3,25.0,82,46,17,0.00,40.00,7,2,17,0.00
2012-9-18,78.0,57.0,35.0,44.0,30.1,26.0,80,44,15,0.00,40.00,9,2,16,0.00
2012-9-19,78.0,57.9,37.0,40.0,30.1,27.0,73,41,17,0.00,40.00,8,2,16,0.00
2012-9-20,80.0,58.9,40.0,44.0,31.6,29.0,70,41,17,0.00,40.00,7,1,15,0.00
2012-9-21,80.0,59.6,38.0,41.0,30.6,27.0,72,40,16,0.00,40.00,7,1,15,0.00
2012-9-22,79.0,58.6,40.0,41.0,30.1,-99.9,68,41,15,0.00,40.00,9,2,18,0.00
2012-9-23,77.0,58.2,42.0,43.0,35.6,32.0,73,48,19,0.00,40.00,11,2,24,0.00
2012-9-24,73.0,57.7,41.0,46.0,34.2,29.0,85,47,22,0.00,40.00,14,5,28,0.00
2012-9-25,72.0,59.8,42.0,38.0,31.5,28.0,60,36,20,0.00,40.00,12,5,24,0.00
2012-9-26,72.0,52.6,34.0,38.0,30.4,25.0,80,48,20,0.00,40.00,9,2,20,0.00
2012-9-27,73.0,53.6,33.0,42.0,32.4,29.0,86,50,22,0.00,40.00,5,1,13,0.00
2012-9-28,74.0,52.7,35.0,43.0,32.5,30.0,86,52,22,0.00,40.00,7,2,16,0.00
2012-9-29,74.0,54.1,36.0,44.0,33.9,29.0,80,52,23,0.00,40.00,8,2,12,0.00
2012-9-30,75.0,54.4,34.0,41.0,26.6,16.0,78,43,12,0.00,40.00,9,2,20,0.00
2012-10-1,76.0,58.0,41.0,32.0,25.9,21.0,50,33,15,0.00,40.00,13,4,22,0.00
2012-10-2,79.0,57.7,33.0,36.0,24.9,21.0,66,35,12,0.00,40.00,10,2,19,0.00
2012-10-3,78.0,59.0,37.0,35.0,23.8,21.0,52,30,13,0.00,40.00,11,4,23,0.00
2012-10-4,73.0,59.7,41.0,36.0,29.5,26.0,58,33,21,0.00,40.00,14,6,26,0.00
2012-10-5,72.0,53.8,33.0,36.0,27.7,25.0,77,42,18,0.00,40.00,11,3,26,0.00
2012-10-6,71.0,53.2,38.0,39.0,29.5,26.0,72,44,21,0.00,40.00,13,3,23,0.00
2012-10-7,72.0,50.5,30.0,33.0,24.4,17.0,76,42,17,0.00,40.00,6,1,15,0.00
2012-10-8,69.0,51.6,33.0,39.0,30.9,19.0,83,49,26,0.00,40.00,12,4,22,0.00
2012-10-9,68.0,53.1,35.0,45.0,34.6,29.0,89,53,28,0.00,40.00,9,3,17,0.00
2012-10-10,67.0,50.8,33.0,42.0,33.7,29.0,97,58,27,0.00,40.00,10,3,22,0.00
2012-10-11,66.0,47.4,32.0,49.0,37.5,30.0,95,73,35,0.00,40.00,12,4,24,0.38
2012-10-12,46.0,40.7,35.0,44.0,37.4,32.0,98,89,78,0.00,40.00,13,6,25,1.04
2012-10-13,63.0,44.6,31.0,40.0,33.8,30.0,99,71,32,0.00,40.00,7,2,14,0.01
2012-10-14,63.0,45.8,31.0,42.0,34.9,31.0,99,71,36,0.00,40.00,11,4,21,0.01
2012-10-15,72.0,48.7,29.0,45.0,31.2,25.0,99,61,18,0.00,40.00,7,1,15,0.00
2012-10-16,74.0,53.4,31.0,39.0,29.0,23.0,91,48,15,0.00,40.00,9,3,17,0.00
2012-10-17,74.0,55.0,36.0,37.0,25.2,12.0,63,37,11,0.00,40.00,9,2,15,0.00
2012-10-18,72.0,46.4,26.0,31.0,19.6,10.0,77,42,14,0.00,40.00,6,1,10,0.00
2012-10-19,76.0,48.6,27.0,32.0,22.4,18.0,77,45,11,0.00,40.00,8,1,13,0.00
2012-10-20,67.0,49.1,32.0,35.0,26.5,20.0,66,44,22,0.00,40.00,10,3,22,0.00
2012-10-21,62.0,49.7,38.0,41.0,34.8,28.0,91,58,38,0.00,40.00,14,5,21,0.00
2012-10-22,60.0,50.8,42.0,45.0,40.8,37.0,95,71,45,0.00,40.00,13,8,23,0.00
2012-10-23,60.0,50.6,43.0,46.0,39.2,32.0,97,68,40,0.00,40.00,13,8,24,0.00
2012-10-24,59.0,46.5,30.0,37.0,23.5,9.0,94,47,15,0.00,40.00,16,8,29,0.00
2012-10-25,58.0,37.7,20.0,20.0,14.4,7.0,69,43,15,0.00,40.00,7,2,22,0.00
2012-10-26,48.0,36.6,24.0,16.0,6.4,-1.0,56,30,13,0.00,40.00,17,10,27,0.00
2012-10-27,63.0,38.1,18.0,12.0,7.0,3.0,54,32,13,0.00,40.00,9,2,15,0.00
2012-10-28,69.0,42.6,21.0,17.0,11.6,7.0,61,34,11,0.00,40.00,7,1,14,0.00
2012-10-29,69.0,44.7,24.0,27.0,11.9,7.0,62,33,10,0.00,40.00,8,2,16,0.00
2012-10-30,69.0,43.0,23.0,24.0,12.5,10.0,59,35,11,0.00,40.00,8,2,16,0.00
2012-10-31,69.0,43.2,23.0,23.0,15.4,11.0,63,38,13,0.00,40.00,5,1,15,0.00
2012-11-1,64.0,42.7,22.0,23.0,14.3,10.0,68,38,12,0.00,40.00,10,3,22,0.00
2012-11-2,61.0,44.2,30.0,29.0,22.1,14.0,68,44,24,0.00,40.00,10,2,19,0.00
2012-11-3,64.0,41.5,25.0,31.0,23.5,19.0,82,54,24,0.00,40.00,7,1,15,0.00
2012-11-4,64.0,41.5,23.0,30.0,18.2,13.0,84,47,16,0.00,40.00,8,2,15,0.00
2012-11-5,66.0,48.0,29.0,24.0,19.5,13.0,59,35,18,0.00,40.00,11,4,18,0.00
2012-11-6,69.0,43.3,24.0,31.0,21.2,17.0,79,48,18,0.00,40.00,6,1,12,0.00
2012-11-7,67.0,44.5,25.0,32.0,19.9,16.0,74,44,16,0.00,40.00,8,2,17,0.00
2012-11-8,60.0,42.2,27.0,41.0,26.5,16.0,98,60,26,0.00,40.00,17,6,27,0.17
2012-11-9,46.0,41.9,33.0,43.0,38.4,32.0,98,88,70,0.00,40.00,20,12,36,0.87
2012-11-10,34.0,27.2,17.0,32.0,15.9,5.0,95,66,30,0.00,40.00,14,8,27,0.40
2012-11-11,40.0,24.6,10.0,15.0,9.2,0.0,90,58,21,0.00,40.00,8,2,17,0.03
2012-11-12,42.0,27.6,19.0,11.0,3.8,0.0,71,39,18,0.00,40.00,11,5,20,0.02
2012-11-13,50.0,28.7,13.0,14.0,8.1,3.0,79,49,16,0.00,40.00,11,3,17,0.00
2012-11-14,57.0,32.3,14.0,27.0,9.7,-99.9,79,49,12,0.00,40.00,6,1,14,0.00
2012-11-15,53.0,34.0,18.0,23.0,17.1,11.0,77,54,23,0.00,40.00,7,1,11,0.00
2012-11-16,58.0,42.8,31.0,35.0,22.2,17.0,75,48,21,0.00,40.00,10,3,17,0.00
2012-11-17,53.0,41.0,25.0,36.0,27.8,18.0,84,60,46,0.00,40.00,11,4,21,0.00
2012-11-18,53.0,38.2,26.0,38.0,30.6,25.0,96,77,46,0.00,40.00,9,4,19,0.00
2012-11-19,56.0,35.7,22.0,35.0,22.5,14.0,97,67,20,0.00,40.00,8,2,14,0.00
2012-11-20,63.0,36.2,19.0,31.0,20.2,11.0,88,60,14,0.00,40.00,6,1,12,0.00
2012-11-21,59.0,36.8,20.0,36.0,23.1,17.0,92,64,27,0.00,40.00,9,2,16,0.00
2012-11-22,62.0,38.3,22.0,34.0,21.9,19.0,92,60,21,0.00,40.00,8,2,12,0.00
2012-11-23,58.0,36.3,21.0,25.0,19.1,16.0,85,57,22,0.00,40.00,9,2,16,0.00
2012-11-24,65.0,37.7,19.0,29.0,19.2,15.0,84,55,17,0.00,40.00,6,1,14,0.00
2012-11-25,59.0,37.4,19.0,34.0,19.6,15.0,85,56,20,0.00,40.00,9,2,16,0.00
2012-11-26,28.0,25.2,23.0,20.0,18.9,17.0,81,77,70,0.00,40.00,0,0,0,0.00
2012-11-27,58.0,35.7,17.0,28.0,19.6,13.0,86,58,24,0.00,40.00,9,2,16,0.00
2012-11-28,57.0,38.1,21.0,33.0,23.6,18.0,88,61,30,0.00,40.00,11,2,20,0.00
2012-11-29,56.0,39.6,22.0,33.0,27.1,20.0,94,65,35,0.00,40.00,13,4,24,0.00
2012-11-30,55.0,39.7,28.0,39.0,32.0,25.0,98,77,37,0.00,40.00,9,3,15,0.00
2012-12-1,57.0,41.8,30.0,35.0,29.0,23.0,98,65,28,0.00,40.00,11,3,21,0.00
2012-12-2,54.0,37.8,24.0,40.0,30.0,23.0,97,76,39,0.00,40.00,12,5,21,0.00
2012-12-3,54.0,40.9,26.0,38.0,33.7,25.0,95,78,51,0.00,40.00,9,3,15,0.00
2012-12-4,58.0,37.4,24.0,36.0,25.5,22.0,95,68,28,0.00,40.00,8,2,12,0.00
2012-12-5,62.0,40.4,24.0,29.0,19.8,14.0,84,52,16,0.00,40.00,10,2,17,0.00
2012-12-6,56.0,36.5,26.0,31.0,21.6,-99.9,88,61,38,0.00,40.00,9,2,18,0.00
2012-12-7,54.0,34.5,24.0,38.0,23.6,11.0,96,69,32,0.00,40.00,9,1,15,0.00
2012-12-8,29.0,25.8,21.0,24.0,21.3,18.0,89,83,68,0.00,40.00,1,0,8,0.00
2012-12-9,44.0,30.4,20.0,21.0,13.7,4.0,79,53,27,0.00,40.00,11,4,25,0.00
2012-12-10,45.0,31.2,19.0,12.0,9.0,7.0,61,42,24,0.00,40.00,7,3,11,0.00
2012-12-11,51.0,23.2,10.0,12.0,8.0,5.0,78,56,19,0.00,40.00,9,2,14,0.00
2012-12-12,43.0,28.3,14.0,14.0,8.6,5.0,74,47,25,0.00,40.00,13,4,21,0.00
2012-12-13,43.0,28.2,13.0,31.0,16.3,3.0,88,62,38,0.00,40.00,17,6,28,0.04
2012-12-14,34.0,28.8,26.0,32.0,27.3,23.0,99,94,88,0.00,40.00,11,7,21,0.05
2012-12-15,30.0,25.7,10.0,29.0,24.1,7.0,97,94,86,0.00,40.00,9,5,20,0.01
2012-12-16,33.0,24.1,10.0,26.0,20.5,7.0,94,86,68,0.00,40.00,8,4,14,0.51
2012-12-17,35.0,30.7,26.0,32.0,28.1,24.0,94,90,85,0.00,40.00,10,6,17,0.01
2012-12-18,35.0,32.5,31.0,33.0,30.8,29.0,99,94,87,0.00,40.00,16,9,31,0.05
2012-12-19,31.0,21.2,9.0,31.0,9.5,-4.0,99,64,30,0.00,40.00,13,8,29,0.31
2012-12-20,35.0,12.8,-5.0,9.0,1.1,-10.0,85,63,30,0.00,40.00,9,2,14,0.02
2012-12-21,52.0,17.9,-2.0,17.0,4.3,-7.0,83,63,14,0.00,40.00,6,1,13,0.00
2012-12-22,48.0,28.9,15.0,23.0,17.1,8.0,92,65,35,0.00,40.00,10,3,17,0.00
2012-12-23,49.0,30.7,18.0,25.0,17.0,9.0,93,62,25,0.00,40.00,8,3,15,0.00
2012-12-24,36.0,28.5,21.0,31.0,20.7,12.0,95,73,50,0.00,40.00,14,7,28,0.01
2012-12-25,29.0,18.3,3.0,16.0,2.6,-3.0,78,53,28,0.00,40.00,9,4,21,0.01
2012-12-26,33.0,21.5,9.0,25.0,11.3,1.0,94,66,41,0.00,40.00,12,4,21,0.01
2012-12-27,33.0,21.8,9.0,23.0,17.4,6.0,93,83,55,0.00,40.00,9,4,20,0.04
2012-12-28,37.0,16.4,-5.0,14.0,5.4,-11.0,86,65,30,0.00,40.00,7,2,12,0.01
2012-12-29,40.0,16.2,-1.0,19.0,6.2,-6.0,83,67,28,0.00,40.00,6,2,12,0.00
2012-12-30,34.0,20.0,9.0,24.0,13.9,6.0,95,79,48,0.00,40.00,11,3,19,0.00
2012-12-31,30.0,21.2,11.0,23.0,15.9,8.0,95,80,60,0.00,40.00,10,4,20,0.13
2013-1-1,35.0,15.9,-1.0,21.0,6.5,-6.0,89,68,42,0.00,40.00,10,4,21,0.04